Ogden/Hill AFB, Utah
Current Conditions -  °F | °C
As of 3:18 PM on Sunday 23 Nov 2014 (Local Time) from KHIF Reporting Station
Broken Clouds Broken Clouds  
Wind Chill: 31°   Ceiling: 4400
Heat Index: 36°   Visibility: 10mi
Dew Point: 21°   Wind: 6mph
Humidity: 56%   Direction: 280°W
Pressure: 30.21"   Gusts: NA
Location:  41.12°N, 111.97°W
Report Text: KHIF 232218Z AUTO 28005KT 10SM BKN044 BKN055 02/M06 A3021 RMK AO2
Loading
Personal Weather Stations






























Interactive Weather Map New forecast layout! Learn more

10-Day Weather Forecast

Advertisements
Track Severe Weather on mobile